Moultonborough, New Hampshire
Current Conditions -  °F | °C
As of 3:55 PM on Friday 31 Oct 2014 (Local Time) from KLCI Reporting Station
Clear Clear  
Wind Chill: 48°   Ceiling: Unl
Heat Index: 48°   Visibility: 10mi
Dew Point: 34°   Wind: 3mph
Humidity: 57%   Direction: 80°E
Pressure: 29.99"   Gusts: NA
Location:  43.76°N, 71.4°W
Report Text: KLCI 311955Z AUTO 08003KT 10SM CLR 09/01 A2999 RMK AO1
Loading
Personal Weather Stations






























Interactive Weather Map
Tropical Storm Tracking
New forecast layout! Learn more

10-Day Weather Forecast

Advertisements
Track Severe Weather on mobile